Agana Heights, GU

1:08 AM ChST on August 29, 2014 (GMT +1000)
Maite | Change Station
CLOSE
Current Station
Personal Weather Station
Location: Maite, GU
Elevation: 140 ft
Nearby Weather Stations

Elev 140 ft 13.48 °N, 144.76 °E | Updated 9 seconds ago

Clear
Clear
82.5 °F
Feels Like 91 °F
N
2.0
Wind Variable Wind from ENE
Gusts 4.0 mph

Today
High -- | Low -- °F
--% Chance of Precip.
Yesterday
High -- | Low -- °F
Precip. -- in
6:09 AM 6:34 PM
Waxing Crescent, 8% visible
Pressure 29.83 in
Visibility 10.0 miles
Clouds Clear
Heat Index 91 °F
Dew Point 78 °F
Humidity 85%
Rainfall 0.00 in
Snow Depth Not available.
UV 0.0 out of 12
Pollen Not available.
Air Quality Not available.
Flu Activity Not available.
METAR PGUM 281454Z 05005KT 10SM CLR 28/24 A2985 RMK AO2 SLP100 T02780244 58015

More Conditions Fewer Conditions

Pressure 29.83 in
Visibility 10.0 miles
Clouds Clear
Heat Index 91 °F
Dew Point 78 °F
Humidity 85%
Rainfall 0.00 in
Snow Depth Not available.
UV 0.0 out of 12
Pollen Not available.
Air Quality Not available.
Flu Activity Not available.
METAR PGUM 281454Z 05005KT 10SM CLR 28/24 A2985 RMK AO2 SLP100 T02780244 58015

More Conditions Fewer Conditions

10-Day Weather Forecast

Almanac

Astronomy

Aug. 29, 2014 Rise Set
Actual Time 6:09 AM ChST 6:34 PM ChST
Civil Twilight 5:47 AM ChST 6:56 PM ChST
Nautical Twilight 5:22 AM ChST 7:21 PM ChST
Astronomical Twilight 4:57 AM ChST 7:46 PM ChST
Moon 8:43 AM ChST (8/29) 8:52 PM ChST (8/29)
Length of Visible Light 13h 08m
Length of Day
12h 25m
Tomorrow will be 0m 42s shorter.
Waxing Crescent, 8% of the Moon is Illuminated
Aug 28
Waxing Crescent
Sep 2
First Quarter
Sep 8
Full
Sep 15
Last Quarter
Sep 24
New

Community

WunderPhotos

Upload Photos

1,747,981 photos uploaded!

Nearby

Snow Depth

Station Depth Elevation
No new snow has been reported.

Earthquake Activity

City Distance Mag. Time & Date
No recent earthquake activity has been reported nearby.
Minimum magnitude displayed is 2.5.

Coastal Water Temperatures

Place Temperature
No Stations Reporting

Nearby Weather Stations